Fure West — OZ2100 — position and weather

sailwx.info

Track history (hours):
 
Tides and Currents Weather Stations Pressure Air Temp Water Temp Dewpoint Dewpoint Depression Visibility Wind Speed Wind Dir Waves Ship Positions

Fure West

Last reported at 2015-Feb-01 05:26 UTC. Time now 2015-Feb-01 05:41 UTC.
Position N 53°40' E 004°52'.

Length 144 m; draft 6.4 m.

Type: Tanker. MMSI: 231775000.

Date/timePositionNaut miles runAvg speedWind from/ knotsBaromVisibWave heightAir tempDewpointWater temp
2015-Feb-01 05:26N 53°40' E 004°52'8 9.5
2015-Feb-01 04:33N 53°32' E 004°47'1010.2
2015-Feb-01 03:33N 53°22' E 004°40'1111.3
2015-Feb-01 02:33N 53°12' E 004°33'1211.7
2015-Feb-01 01:33N 53°02' E 004°23'1110.9
2015-Feb-01 00:33N 52°52' E 004°15'1110.6
2015-Jan-31 23:33N 52°43' E 004°05'1010.2
2015-Jan-31 22:33N 52°34' E 003°57'9 9.5
2015-Jan-31 21:33N 52°25' E 003°53'9 9.1
2015-Jan-31 20:33N 52°16' E 003°52'9 9.1
2015-Jan-31 19:33N 52°07' E 003°54'8 8.2
2015-Jan-31 18:33N 52°00' E 004°01'4 3.9
2015-Jan-31 17:31N 51°57' E 004°05'0 0.0
2015-Jan-31 16:22N 51°57' E 004°05'0 0.0
2015-Jan-31 14:25N 51°57' E 004°05'0 0.0
2015-Jan-31 13:31N 51°57' E 004°05'0 0.0
2015-Jan-31 12:31N 51°57' E 004°05'0 0.0
2015-Jan-31 11:31N 51°57' E 004°05'0 0.0
2015-Jan-31 10:25N 51°57' E 004°05'0 0.0
2015-Jan-31 09:25N 51°57' E 004°05'0 0.0
2015-Jan-31 08:31N 51°57' E 004°05'0 0.0
2015-Jan-31 07:25N 51°57' E 004°05'0 0.0
2015-Jan-31 06:07N 51°57' E 004°05'0 0.0
2015-Jan-31 05:25N 51°57' E 004°05'0 0.0
2015-Jan-31 04:31N 51°57' E 004°05'0 0.0
2015-Jan-31 03:07N 51°57' E 004°05'0 0.0
2015-Jan-31 02:31N 51°57' E 004°05'0 0.0
2015-Jan-31 01:19N 51°57' E 004°05'0 0.0
2015-Jan-31 00:19N 51°57' E 004°05'0 0.0
2015-Jan-30 23:28N 51°57' E 004°05'0 0.0
2015-Jan-30 22:22N 51°57' E 004°05'0 0.0
2015-Jan-30 21:19N 51°57' E 004°05'0 0.0
2015-Jan-30 20:29N 51°57' E 004°05'2 2.1
2015-Jan-30 19:33N 51°59' E 004°04'9 8.9
2015-Jan-30 18:33N 51°59' E 003°50'3 2.6
2015-Jan-30 17:31N 51°57' E 003°48'0 0.0
2015-Jan-30 16:31N 51°57' E 003°48'0 0.1
2015-Jan-30 15:28N 51°57' E 003°48'0 0.0
2015-Jan-30 14:31N 51°57' E 003°48'0 0.1
2015-Jan-30 13:31N 51°57' E 003°48'0 0.0
2015-Jan-30 12:31N 51°57' E 003°48'0 0.0
2015-Jan-30 11:16N 51°57' E 003°48'0 0.0
2015-Jan-30 10:31N 51°57' E 003°48'0 0.0
2015-Jan-30 09:31N 51°57' E 003°48'0 0.2
2015-Jan-30 08:31N 51°57' E 003°48'2 2.1
2015-Jan-30 07:32N 51°57' E 003°45'1210.8
2015-Jan-30 06:24N 51°56' E 003°25'3910.1
2015-Jan-30 02:33N 51°39' E 002°28'1110.7
2015-Jan-30 01:33N 51°31' E 002°17'1110.6
2015-Jan-30 00:29N 51°21' E 002°08'1010.6
2015-Jan-29 23:33N 51°13' E 001°60'1212.2
2015-Jan-29 22:33N 51°05' E 001°44'1313.1
2015-Jan-29 21:32N 50°56' E 001°29'9510.6
2015-Jan-29 12:33N 49°45' W 000°09'1111.3
2015-Jan-29 11:33N 49°34' W 000°02'9 7.9
2015-Jan-29 10:28N 49°28' E 000°07'0 0.0
2015-Jan-29 09:31N 49°28' E 000°07'0 0.0
2015-Jan-29 08:31N 49°28' E 000°07'0 0.0
2015-Jan-28 15:32N 49°28' E 000°07'0 0.0
2015-Jan-28 14:34N 49°28' E 000°07'7 6.5
2015-Jan-28 13:33N 49°30' W 000°02'5 4.6
2015-Jan-28 12:34N 49°33' W 000°08'1 0.5
2015-Jan-28 11:28N 49°34' W 000°08'0 0.0
2015-Jan-28 10:28N 49°34' W 000°08'0 0.0
2015-Jan-28 09:28N 49°34' W 000°08'4 4.4
2015-Jan-28 08:34N 49°37' W 000°11'5212.6
2015-Jan-28 04:24N 50°29' E 000°04'1112.8
2015-Jan-28 03:33N 50°32' E 000°20'1312.7
2015-Jan-28 02:33N 50°37' E 000°39'1313.5
2015-Jan-28 01:34N 50°45' E 000°56'1515.1
2015-Jan-28 00:32N 50°53' E 001°16'1616.5
2015-Jan-27 23:34N 51°05' E 001°33'1515.4
2015-Jan-27 22:34N 51°17' E 001°49'1414.3
2015-Jan-27 21:33N 51°29' E 002°01'1413.6
2015-Jan-27 20:32N 51°40' E 002°16'7413.9
2015-Jan-27 15:11N 52°30' E 003°45'914.5
2015-Jan-27 14:33N 52°31' E 003°59'1414.4
2015-Jan-27 13:33N 52°30' E 004°23'8 8.5
2015-Jan-27 12:34N 52°28' E 004°36'2 1.8
2015-Jan-27 11:33N 52°28' E 004°39'6 5.4
2015-Jan-27 10:31N 52°24' E 004°46'0 0.0
2015-Jan-27 09:31N 52°24' E 004°46'0 0.0
2015-Jan-27 08:31N 52°24' E 004°46'0 0.0
2015-Jan-27 07:31N 52°24' E 004°46'0 0.0
2015-Jan-27 06:31N 52°24' E 004°46'0 0.0
2015-Jan-27 05:28N 52°24' E 004°46'0 0.0
2015-Jan-27 04:31N 52°24' E 004°46'0 0.0
2015-Jan-27 03:31N 52°24' E 004°46'0 0.0
2015-Jan-27 02:31N 52°24' E 004°46'0 0.0
2015-Jan-27 01:31N 52°24' E 004°46'0 0.0
2015-Jan-27 00:28N 52°24' E 004°46'0 0.0
2015-Jan-26 23:31N 52°24' E 004°46'0 0.0
2015-Jan-26 22:28N 52°24' E 004°46'0 0.0
2015-Jan-26 21:31N 52°24' E 004°46'0 0.0
2015-Jan-26 20:28N 52°24' E 004°46'0 0.0
2015-Jan-26 19:31N 52°24' E 004°46'0 0.0
2015-Jan-26 18:31N 52°24' E 004°46'0 0.0
2015-Jan-26 17:31N 52°24' E 004°46'0 0.0
2015-Jan-26 16:25N 52°24' E 004°46'0 0.0
2015-Jan-26 15:31N 52°24' E 004°46'0 0.0
2015-Jan-26 14:31N 52°24' E 004°46'0 0.0
2015-Jan-26 13:31N 52°24' E 004°46'0 0.0
2015-Jan-26 12:28N 52°24' E 004°46'0 0.0
2015-Jan-26 11:31N 52°24' E 004°46'0 0.0
2015-Jan-25 11:17N 52°24' E 004°46'0 0.0
2015-Jan-25 10:33N 52°24' E 004°46'4 3.9
2015-Jan-25 09:33N 52°27' E 004°42'4 3.5
2015-Jan-25 08:34N 52°28' E 004°36'3 2.5
2015-Jan-25 07:34N 52°28' E 004°32'8 8.1
2015-Jan-25 06:33N 52°29' E 004°19'6 5.6
2015-Jan-25 05:33N 52°28' E 004°10'0 0.2
2015-Jan-25 04:33N 52°27' E 004°10'0 0.1
2015-Jan-25 03:33N 52°27' E 004°10'0 0.1
2015-Jan-25 02:33N 52°27' E 004°10'0 0.0
2015-Jan-25 01:30N 52°27' E 004°10'0 0.0
2015-Jan-25 00:33N 52°27' E 004°10'0 0.0
2015-Jan-24 23:33N 52°27' E 004°10'0 0.0
2015-Jan-24 22:33N 52°27' E 004°10'0 0.1
2015-Jan-24 21:33N 52°27' E 004°10'0 0.0
2015-Jan-24 20:33N 52°27' E 004°10'0 0.1
2015-Jan-24 19:33N 52°28' E 004°10'0 0.0
2015-Jan-24 18:33N 52°28' E 004°10'0 0.0
2015-Jan-24 17:33N 52°28' E 004°10'0 0.1
2015-Jan-24 16:33N 52°28' E 004°10'0 0.1
2015-Jan-24 15:33N 52°27' E 004°10'0 0.0
2015-Jan-24 14:33N 52°27' E 004°10'0 0.0
2015-Jan-24 13:33N 52°27' E 004°10'0 0.0
2015-Jan-24 12:33N 52°27' E 004°10'0 0.0
2015-Jan-24 11:33N 52°27' E 004°10'0 0.1
2015-Jan-24 10:33N 52°27' E 004°10'0 0.1
2015-Jan-24 09:33N 52°27' E 004°10'0 0.1
2015-Jan-24 08:33N 52°28' E 004°10'0 0.1
2015-Jan-24 07:33N 52°28' E 004°10'0 0.0
2015-Jan-24 06:33N 52°28' E 004°10'0 0.0
2015-Jan-24 05:33N 52°28' E 004°10'0 0.0
2015-Jan-24 04:33N 52°28' E 004°10'0 0.0
2015-Jan-24 03:33N 52°28' E 004°10'0 0.0
2015-Jan-24 02:33N 52°28' E 004°10'0 0.0
2015-Jan-24 01:33N 52°28' E 004°10'0 0.0
2015-Jan-24 00:33N 52°28' E 004°10'0 0.1
2015-Jan-23 23:33N 52°28' E 004°10'0 0.1
2015-Jan-23 22:33N 52°28' E 004°10'0 0.0
2015-Jan-23 21:33N 52°28' E 004°10'0 0.0
2015-Jan-23 20:33N 52°28' E 004°10'0 0.0
2015-Jan-23 19:33N 52°28' E 004°10'0 0.0
2015-Jan-23 18:33N 52°28' E 004°10'0 0.0
2015-Jan-23 17:30N 52°28' E 004°10'0 0.0
2015-Jan-23 16:33N 52°28' E 004°10'0 0.0
2015-Jan-23 15:33N 52°28' E 004°10'0 0.1
2015-Jan-23 14:33N 52°28' E 004°10'0 0.1
2015-Jan-23 13:31N 52°27' E 004°10'0 0.0
2015-Jan-23 12:31N 52°27' E 004°10'0 0.0
2015-Jan-23 11:29N 52°27' E 004°10'0 0.0
2015-Jan-23 10:32N 52°27' E 004°10'0 0.0
2015-Jan-23 09:32N 52°27' E 004°10'0 0.1
2015-Jan-23 08:32N 52°28' E 004°10'0 0.1
2015-Jan-23 07:32N 52°28' E 004°10'0 0.0
2015-Jan-23 06:32N 52°28' E 004°10'0 0.0
2015-Jan-23 05:32N 52°28' E 004°10'0 0.0
2015-Jan-23 04:32N 52°28' E 004°10'0 0.0
2015-Jan-23 03:26N 52°28' E 004°10'0 0.1
2015-Jan-23 02:32N 52°28' E 004°10'0 0.1
2015-Jan-23 01:33N 52°27' E 004°10'0 0.0
2015-Jan-23 00:32N 52°27' E 004°10'0 0.0
2015-Jan-22 23:32N 52°27' E 004°10'0 0.0
2015-Jan-22 22:32N 52°27' E 004°10'0 0.0
2015-Jan-22 21:32N 52°27' E 004°10'0 0.0
2015-Jan-22 20:32N 52°27' E 004°10'0 0.1
2015-Jan-22 19:32N 52°28' E 004°10'0 0.1
2015-Jan-22 18:32N 52°28' E 004°10'0 0.0
2015-Jan-22 17:32N 52°28' E 004°10'0 0.0
2015-Jan-22 16:32N 52°28' E 004°10'0 0.1
2015-Jan-22 15:33N 52°28' E 004°10'8 7.9
2015-Jan-22 14:34N 52°28' E 004°22'7 7.4
2015-Jan-22 13:33N 52°28' E 004°10'2 1.5
2015-Jan-22 12:32N 52°27' E 004°08'0 0.0
2015-Jan-22 11:32N 52°27' E 004°08'0 0.0
2015-Jan-22 10:32N 52°27' E 004°08'0 0.0
2015-Jan-22 09:29N 52°27' E 004°08'0 0.0
2015-Jan-22 08:32N 52°27' E 004°08'0 0.1
2015-Jan-22 07:32N 52°27' E 004°08'0 0.1
2015-Jan-22 06:29N 52°27' E 004°08'0 0.1
2015-Jan-22 05:29N 52°27' E 004°08'  
Track history (hours):
 
Tides and Currents Weather Stations Pressure Air Temp Water Temp Dewpoint Dewpoint Depression Visibility Wind Speed Wind Dir Waves Ship Positions

Fure West

Last reported at 2015-Feb-01 05:26 UTC. Time now 2015-Feb-01 05:41 UTC.
Position N 53°40' E 004°52'.

Length 144 m; draft 6.4 m.

Type: Tanker. MMSI: 231775000.

Date/timePositionNaut miles runAvg speedWind from/ knotsBaromVisibWave heightAir tempDewpointWater temp
2015-Feb-01 05:26N 53°40' E 004°52'8 9.5
2015-Feb-01 04:33N 53°32' E 004°47'1010.2
2015-Feb-01 03:33N 53°22' E 004°40'1111.3
2015-Feb-01 02:33N 53°12' E 004°33'1211.7
2015-Feb-01 01:33N 53°02' E 004°23'1110.9
2015-Feb-01 00:33N 52°52' E 004°15'1110.6
2015-Jan-31 23:33N 52°43' E 004°05'1010.2
2015-Jan-31 22:33N 52°34' E 003°57'9 9.5
2015-Jan-31 21:33N 52°25' E 003°53'9 9.1
2015-Jan-31 20:33N 52°16' E 003°52'9 9.1
2015-Jan-31 19:33N 52°07' E 003°54'8 8.2
2015-Jan-31 18:33N 52°00' E 004°01'4 3.9
2015-Jan-31 17:31N 51°57' E 004°05'0 0.0
2015-Jan-31 16:22N 51°57' E 004°05'0 0.0
2015-Jan-31 14:25N 51°57' E 004°05'0 0.0
2015-Jan-31 13:31N 51°57' E 004°05'0 0.0
2015-Jan-31 12:31N 51°57' E 004°05'0 0.0
2015-Jan-31 11:31N 51°57' E 004°05'0 0.0
2015-Jan-31 10:25N 51°57' E 004°05'0 0.0
2015-Jan-31 09:25N 51°57' E 004°05'0 0.0
2015-Jan-31 08:31N 51°57' E 004°05'0 0.0
2015-Jan-31 07:25N 51°57' E 004°05'0 0.0
2015-Jan-31 06:07N 51°57' E 004°05'0 0.0
2015-Jan-31 05:25N 51°57' E 004°05'0 0.0
2015-Jan-31 04:31N 51°57' E 004°05'0 0.0
2015-Jan-31 03:07N 51°57' E 004°05'0 0.0
2015-Jan-31 02:31N 51°57' E 004°05'0 0.0
2015-Jan-31 01:19N 51°57' E 004°05'0 0.0
2015-Jan-31 00:19N 51°57' E 004°05'0 0.0
2015-Jan-30 23:28N 51°57' E 004°05'0 0.0
2015-Jan-30 22:22N 51°57' E 004°05'0 0.0
2015-Jan-30 21:19N 51°57' E 004°05'0 0.0
2015-Jan-30 20:29N 51°57' E 004°05'2 2.1
2015-Jan-30 19:33N 51°59' E 004°04'9 8.9
2015-Jan-30 18:33N 51°59' E 003°50'3 2.6
2015-Jan-30 17:31N 51°57' E 003°48'0 0.0
2015-Jan-30 16:31N 51°57' E 003°48'0 0.1
2015-Jan-30 15:28N 51°57' E 003°48'0 0.0
2015-Jan-30 14:31N 51°57' E 003°48'0 0.1
2015-Jan-30 13:31N 51°57' E 003°48'0 0.0
2015-Jan-30 12:31N 51°57' E 003°48'0 0.0
2015-Jan-30 11:16N 51°57' E 003°48'0 0.0
2015-Jan-30 10:31N 51°57' E 003°48'0 0.0
2015-Jan-30 09:31N 51°57' E 003°48'0 0.2
2015-Jan-30 08:31N 51°57' E 003°48'2 2.1
2015-Jan-30 07:32N 51°57' E 003°45'1210.8
2015-Jan-30 06:24N 51°56' E 003°25'3910.1
2015-Jan-30 02:33N 51°39' E 002°28'1110.7
2015-Jan-30 01:33N 51°31' E 002°17'1110.6
2015-Jan-30 00:29N 51°21' E 002°08'1010.6
2015-Jan-29 23:33N 51°13' E 001°60'1212.2
2015-Jan-29 22:33N 51°05' E 001°44'1313.1
2015-Jan-29 21:32N 50°56' E 001°29'9510.6
2015-Jan-29 12:33N 49°45' W 000°09'1111.3
2015-Jan-29 11:33N 49°34' W 000°02'9 7.9
2015-Jan-29 10:28N 49°28' E 000°07'0 0.0
2015-Jan-29 09:31N 49°28' E 000°07'0 0.0
2015-Jan-29 08:31N 49°28' E 000°07'0 0.0
2015-Jan-28 15:32N 49°28' E 000°07'0 0.0
2015-Jan-28 14:34N 49°28' E 000°07'7 6.5
2015-Jan-28 13:33N 49°30' W 000°02'5 4.6
2015-Jan-28 12:34N 49°33' W 000°08'1 0.5
2015-Jan-28 11:28N 49°34' W 000°08'0 0.0
2015-Jan-28 10:28N 49°34' W 000°08'0 0.0
2015-Jan-28 09:28N 49°34' W 000°08'4 4.4
2015-Jan-28 08:34N 49°37' W 000°11'5212.6
2015-Jan-28 04:24N 50°29' E 000°04'1112.8
2015-Jan-28 03:33N 50°32' E 000°20'1312.7
2015-Jan-28 02:33N 50°37' E 000°39'1313.5
2015-Jan-28 01:34N 50°45' E 000°56'1515.1
2015-Jan-28 00:32N 50°53' E 001°16'1616.5
2015-Jan-27 23:34N 51°05' E 001°33'1515.4
2015-Jan-27 22:34N 51°17' E 001°49'1414.3
2015-Jan-27 21:33N 51°29' E 002°01'1413.6
2015-Jan-27 20:32N 51°40' E 002°16'7413.9
2015-Jan-27 15:11N 52°30' E 003°45'914.5
2015-Jan-27 14:33N 52°31' E 003°59'1414.4
2015-Jan-27 13:33N 52°30' E 004°23'8 8.5
2015-Jan-27 12:34N 52°28' E 004°36'2 1.8
2015-Jan-27 11:33N 52°28' E 004°39'6 5.4
2015-Jan-27 10:31N 52°24' E 004°46'0 0.0
2015-Jan-27 09:31N 52°24' E 004°46'0 0.0
2015-Jan-27 08:31N 52°24' E 004°46'0 0.0
2015-Jan-27 07:31N 52°24' E 004°46'0 0.0
2015-Jan-27 06:31N 52°24' E 004°46'0 0.0
2015-Jan-27 05:28N 52°24' E 004°46'0 0.0
2015-Jan-27 04:31N 52°24' E 004°46'0 0.0
2015-Jan-27 03:31N 52°24' E 004°46'0 0.0
2015-Jan-27 02:31N 52°24' E 004°46'0 0.0
2015-Jan-27 01:31N 52°24' E 004°46'0 0.0
2015-Jan-27 00:28N 52°24' E 004°46'0 0.0
2015-Jan-26 23:31N 52°24' E 004°46'0 0.0
2015-Jan-26 22:28N 52°24' E 004°46'0 0.0
2015-Jan-26 21:31N 52°24' E 004°46'0 0.0
2015-Jan-26 20:28N 52°24' E 004°46'0 0.0
2015-Jan-26 19:31N 52°24' E 004°46'0 0.0
2015-Jan-26 18:31N 52°24' E 004°46'0 0.0
2015-Jan-26 17:31N 52°24' E 004°46'0 0.0
2015-Jan-26 16:25N 52°24' E 004°46'0 0.0
2015-Jan-26 15:31N 52°24' E 004°46'0 0.0
2015-Jan-26 14:31N 52°24' E 004°46'0 0.0
2015-Jan-26 13:31N 52°24' E 004°46'0 0.0
2015-Jan-26 12:28N 52°24' E 004°46'0 0.0
2015-Jan-26 11:31N 52°24' E 004°46'0 0.0
2015-Jan-25 11:17N 52°24' E 004°46'0 0.0
2015-Jan-25 10:33N 52°24' E 004°46'4 3.9
2015-Jan-25 09:33N 52°27' E 004°42'4 3.5
2015-Jan-25 08:34N 52°28' E 004°36'3 2.5
2015-Jan-25 07:34N 52°28' E 004°32'8 8.1
2015-Jan-25 06:33N 52°29' E 004°19'6 5.6
2015-Jan-25 05:33N 52°28' E 004°10'0 0.2
2015-Jan-25 04:33N 52°27' E 004°10'0 0.1
2015-Jan-25 03:33N 52°27' E 004°10'0 0.1
2015-Jan-25 02:33N 52°27' E 004°10'0 0.0
2015-Jan-25 01:30N 52°27' E 004°10'0 0.0
2015-Jan-25 00:33N 52°27' E 004°10'0 0.0
2015-Jan-24 23:33N 52°27' E 004°10'0 0.0
2015-Jan-24 22:33N 52°27' E 004°10'0 0.1
2015-Jan-24 21:33N 52°27' E 004°10'0 0.0
2015-Jan-24 20:33N 52°27' E 004°10'0 0.1
2015-Jan-24 19:33N 52°28' E 004°10'0 0.0
2015-Jan-24 18:33N 52°28' E 004°10'0 0.0
2015-Jan-24 17:33N 52°28' E 004°10'0 0.1
2015-Jan-24 16:33N 52°28' E 004°10'0 0.1
2015-Jan-24 15:33N 52°27' E 004°10'0 0.0
2015-Jan-24 14:33N 52°27' E 004°10'0 0.0
2015-Jan-24 13:33N 52°27' E 004°10'0 0.0
2015-Jan-24 12:33N 52°27' E 004°10'0 0.0
2015-Jan-24 11:33N 52°27' E 004°10'0 0.1
2015-Jan-24 10:33N 52°27' E 004°10'0 0.1
2015-Jan-24 09:33N 52°27' E 004°10'0 0.1
2015-Jan-24 08:33N 52°28' E 004°10'0 0.1
2015-Jan-24 07:33N 52°28' E 004°10'0 0.0
2015-Jan-24 06:33N 52°28' E 004°10'0 0.0
2015-Jan-24 05:33N 52°28' E 004°10'0 0.0
2015-Jan-24 04:33N 52°28' E 004°10'0 0.0
2015-Jan-24 03:33N 52°28' E 004°10'0 0.0
2015-Jan-24 02:33N 52°28' E 004°10'0 0.0
2015-Jan-24 01:33N 52°28' E 004°10'0 0.0
2015-Jan-24 00:33N 52°28' E 004°10'0 0.1
2015-Jan-23 23:33N 52°28' E 004°10'0 0.1
2015-Jan-23 22:33N 52°28' E 004°10'0 0.0
2015-Jan-23 21:33N 52°28' E 004°10'0 0.0
2015-Jan-23 20:33N 52°28' E 004°10'0 0.0
2015-Jan-23 19:33N 52°28' E 004°10'0 0.0
2015-Jan-23 18:33N 52°28' E 004°10'0 0.0
2015-Jan-23 17:30N 52°28' E 004°10'0 0.0
2015-Jan-23 16:33N 52°28' E 004°10'0 0.0
2015-Jan-23 15:33N 52°28' E 004°10'0 0.1
2015-Jan-23 14:33N 52°28' E 004°10'0 0.1
2015-Jan-23 13:31N 52°27' E 004°10'0 0.0
2015-Jan-23 12:31N 52°27' E 004°10'0 0.0
2015-Jan-23 11:29N 52°27' E 004°10'0 0.0
2015-Jan-23 10:32N 52°27' E 004°10'0 0.0
2015-Jan-23 09:32N 52°27' E 004°10'0 0.1
2015-Jan-23 08:32N 52°28' E 004°10'0 0.1
2015-Jan-23 07:32N 52°28' E 004°10'0 0.0
2015-Jan-23 06:32N 52°28' E 004°10'0 0.0
2015-Jan-23 05:32N 52°28' E 004°10'0 0.0
2015-Jan-23 04:32N 52°28' E 004°10'0 0.0
2015-Jan-23 03:26N 52°28' E 004°10'0 0.1
2015-Jan-23 02:32N 52°28' E 004°10'0 0.1
2015-Jan-23 01:33N 52°27' E 004°10'0 0.0
2015-Jan-23 00:32N 52°27' E 004°10'0 0.0
2015-Jan-22 23:32N 52°27' E 004°10'0 0.0
2015-Jan-22 22:32N 52°27' E 004°10'0 0.0
2015-Jan-22 21:32N 52°27' E 004°10'0 0.0
2015-Jan-22 20:32N 52°27' E 004°10'0 0.1
2015-Jan-22 19:32N 52°28' E 004°10'0 0.1
2015-Jan-22 18:32N 52°28' E 004°10'0 0.0
2015-Jan-22 17:32N 52°28' E 004°10'0 0.0
2015-Jan-22 16:32N 52°28' E 004°10'0 0.1
2015-Jan-22 15:33N 52°28' E 004°10'8 7.9
2015-Jan-22 14:34N 52°28' E 004°22'7 7.4
2015-Jan-22 13:33N 52°28' E 004°10'2 1.5
2015-Jan-22 12:32N 52°27' E 004°08'0 0.0
2015-Jan-22 11:32N 52°27' E 004°08'0 0.0
2015-Jan-22 10:32N 52°27' E 004°08'0 0.0
2015-Jan-22 09:29N 52°27' E 004°08'0 0.0
2015-Jan-22 08:32N 52°27' E 004°08'0 0.1
2015-Jan-22 07:32N 52°27' E 004°08'0 0.1
2015-Jan-22 06:29N 52°27' E 004°08'0 0.1
2015-Jan-22 05:29N 52°27' E 004°08'  

Dump ship's entire track history